Time;durP1;ratioP1;P1;durP2;ratioP2;P2;SDS_P1;SDS_P2;PMS_P1;PMS_P2;Temp;Humidity;BMP_temperature;BMP_pressure;BME280_temperature;BME280_humidity;BME280_pressure;Samples;Min_cycle;Max_cycle;Signal;HPM_P1;HPM_P2
2023/04/20 00:50:58;;;;;;;4.30;1.42;;;;;;;;;;6431586;22;20006;-86
2023/04/20 00:55:11;;;;;;;4.63;1.63;;;;;;;;;;6430166;22;20097;-87
2023/04/20 00:59:17;;;;;;;4.88;1.52;;;;;;;;;;6298072;22;20043;-89
2023/04/20 01:03:35;;;;;;;4.47;1.60;;;;;;;;;;6208204;23;20032;-87
2023/04/20 01:08:00;;;;;;;4.13;1.40;;;;;;;;;;6203712;23;20024;-87
2023/04/20 01:12:01;;;;;;;6.57;1.73;;;;;;;;;;6206672;23;20043;-89
2023/04/20 01:21:24;;;;;;;5.80;1.70;;;;;;;;;;6127910;23;20521;-86
2023/04/20 01:25:28;;;;;;;4.55;1.45;;;;;;;;;;6157743;23;20111;-87
2023/04/20 01:34:32;;;;;;;5.63;1.52;;;;;;;;;;6059382;23;20058;-87
2023/04/20 01:43:53;;;;;;;4.82;1.60;;;;;;;;;;5929272;24;20074;-87
2023/04/20 02:02:18;;;;;;;5.20;1.30;;;;;;;;;;5850294;24;20049;-86
2023/04/20 07:02:14;;;;;;;7.35;3.20;;;;;;;;;;6213644;22;1989205;-85
2023/04/20 07:04:43;;;;;;;10.18;3.53;;;;;;;;;;6312045;22;20454;-85
2023/04/20 07:07:11;;;;;;;8.35;3.38;;;;;;;;;;6312984;22;20025;-85
2023/04/20 07:09:39;;;;;;;15.05;3.58;;;;;;;;;;6251226;22;20094;-85
2023/04/20 07:12:07;;;;;;;7.22;2.83;;;;;;;;;;6311149;22;20023;-85
2023/04/20 07:14:35;;;;;;;8.65;3.35;;;;;;;;;;6310684;22;20023;-85
2023/04/20 07:17:07;;;;;;;14.77;3.25;;;;;;;;;;6310610;22;20092;-85
2023/04/20 07:20:06;;;;;;;6.80;3.42;;;;;;;;;;6312938;22;20050;-85
2023/04/20 07:22:37;;;;;;;8.35;3.35;;;;;;;;;;6285515;22;20027;-85
2023/04/20 07:25:07;;;;;;;9.48;3.90;;;;;;;;;;6311459;22;20053;-85
2023/04/20 07:27:37;;;;;;;10.48;3.33;;;;;;;;;;6311441;22;20058;-85
2023/04/20 07:30:07;;;;;;;8.93;3.55;;;;;;;;;;6314703;22;20015;-85
2023/04/20 07:32:41;;;;;;;9.32;3.50;;;;;;;;;;6311630;22;20359;-85
2023/04/20 07:35:09;;;;;;;11.95;3.65;;;;;;;;;;6312121;22;20463;-85
2023/04/20 07:37:43;;;;;;;12.13;3.72;;;;;;;;;;6310882;22;20023;-85
2023/04/20 07:40:15;;;;;;;11.38;3.60;;;;;;;;;;6312179;22;20019;-85
2023/04/20 07:42:43;;;;;;;17.80;3.65;;;;;;;;;;6309709;22;20030;-85
2023/04/20 07:45:17;;;;;;;12.27;4.15;;;;;;;;;;6308362;22;20015;-85
2023/04/20 07:47:46;;;;;;;13.85;3.97;;;;;;;;;;6308923;22;20019;-85
2023/04/20 07:50:19;;;;;;;10.35;3.60;;;;;;;;;;6308123;22;20022;-85
2023/04/20 07:52:47;;;;;;;8.57;3.47;;;;;;;;;;6309281;22;20038;-85
2023/04/20 07:55:16;;;;;;;9.68;3.55;;;;;;;;;;6309974;22;20042;-85
2023/04/20 07:58:09;;;;;;;12.32;4.15;;;;;;;;;;6309156;22;20149;-85
2023/04/20 08:00:37;;;;;;;11.32;4.13;;;;;;;;;;6310311;22;20069;-85
2023/04/20 08:03:05;;;;;;;14.40;4.35;;;;;;;;;;6309085;22;20329;-85
2023/04/20 08:05:33;;;;;;;10.90;3.95;;;;;;;;;;6310622;22;20094;-86
2023/04/20 08:08:01;;;;;;;15.48;3.90;;;;;;;;;;6313756;22;20022;-85
2023/04/20 08:10:33;;;;;;;9.45;3.60;;;;;;;;;;6300524;22;20455;-85
2023/04/20 08:13:01;;;;;;;11.50;2.95;;;;;;;;;;6311518;22;20066;-85
2023/04/20 08:15:29;;;;;;;10.55;3.97;;;;;;;;;;6310963;22;20023;-85
2023/04/20 08:18:01;;;;;;;13.65;3.97;;;;;;;;;;6309395;22;20094;-86
2023/04/20 08:20:29;;;;;;;13.00;4.50;;;;;;;;;;6312366;22;20020;-85
2023/04/20 08:23:03;;;;;;;10.20;3.72;;;;;;;;;;6309550;22;20336;-86
2023/04/20 08:25:31;;;;;;;11.13;4.22;;;;;;;;;;6308781;22;20030;-85
2023/04/20 08:27:59;;;;;;;6.35;2.13;;;;;;;;;;6308197;22;20023;-86
2023/04/20 08:30:27;;;;;;;13.15;4.32;;;;;;;;;;6299588;22;20397;-86
2023/04/20 08:32:55;;;;;;;9.82;3.97;;;;;;;;;;6307064;22;20043;-85
2023/04/20 08:35:27;;;;;;;10.95;4.20;;;;;;;;;;6308183;22;20061;-85
2023/04/20 08:37:57;;;;;;;18.17;4.40;;;;;;;;;;6296647;22;20019;-86
2023/04/20 08:40:30;;;;;;;14.18;4.53;;;;;;;;;;6311233;22;20015;-86
2023/04/20 08:42:59;;;;;;;9.32;4.32;;;;;;;;;;6272795;22;20106;-86
2023/04/20 08:45:27;;;;;;;11.00;4.72;;;;;;;;;;6311045;22;20348;-86
2023/04/20 08:47:57;;;;;;;12.02;4.15;;;;;;;;;;6309456;22;20019;-86
2023/04/20 08:50:25;;;;;;;13.27;4.75;;;;;;;;;;6310075;22;20100;-87
2023/04/20 08:52:53;;;;;;;8.90;4.15;;;;;;;;;;6312834;22;20029;-87
2023/04/20 08:55:25;;;;;;;8.02;4.18;;;;;;;;;;6311170;22;20039;-86
2023/04/20 08:57:57;;;;;;;14.02;4.30;;;;;;;;;;6310937;22;20019;-87
2023/04/20 09:00:29;;;;;;;10.07;3.60;;;;;;;;;;6311182;22;20038;-86
2023/04/20 09:03:00;;;;;;;9.77;4.50;;;;;;;;;;6307846;22;20019;-87
2023/04/20 09:05:30;;;;;;;14.00;4.20;;;;;;;;;;6309796;22;20019;-86
2023/04/20 09:08:00;;;;;;;11.45;4.47;;;;;;;;;;6313381;22;20343;-87
2023/04/20 09:10:43;;;;;;;9.10;4.45;;;;;;;;;;6313391;22;20455;-87
2023/04/20 09:13:21;;;;;;;15.07;4.70;;;;;;;;;;6310184;22;20015;-86
2023/04/20 09:15:49;;;;;;;8.48;4.20;;;;;;;;;;6309266;22;20041;-87
2023/04/20 09:18:17;;;;;;;11.77;4.45;;;;;;;;;;6271202;22;20092;-87
2023/04/20 09:20:45;;;;;;;13.65;5.20;;;;;;;;;;6311147;22;20094;-87
2023/04/20 09:23:15;;;;;;;10.68;4.63;;;;;;;;;;6307828;22;20015;-87
2023/04/20 09:25:45;;;;;;;14.45;5.15;;;;;;;;;;6311530;22;20041;-87
2023/04/20 09:28:13;;;;;;;8.90;4.65;;;;;;;;;;6307840;22;20015;-87
2023/04/20 09:30:47;;;;;;;13.82;4.75;;;;;;;;;;6305897;22;20011;-87
2023/04/20 09:33:15;;;;;;;12.32;5.25;;;;;;;;;;6281886;22;20019;-87
2023/04/20 09:35:44;;;;;;;9.82;4.88;;;;;;;;;;6299806;22;20433;-86
2023/04/20 09:39:11;;;;;;;18.35;4.30;;;;;;;;;;6312493;22;20008;-86
2023/04/20 09:41:40;;;;;;;12.00;4.55;;;;;;;;;;6312763;22;20051;-86
2023/04/20 09:47:33;;;;;;;11.68;4.55;;;;;;;;;;6309690;22;20201;-86
2023/04/20 09:50:03;;;;;;;13.60;4.43;;;;;;;;;;6284690;22;20031;-87
2023/04/20 09:52:57;;;;;;;14.10;4.50;;;;;;;;;;6310584;22;20118;-87
2023/04/20 09:55:25;;;;;;;12.05;4.88;;;;;;;;;;6312040;22;20122;-87
2023/04/20 09:57:53;;;;;;;11.13;5.22;;;;;;;;;;6311751;22;20090;-87
2023/04/20 10:00:21;;;;;;;17.17;5.68;;;;;;;;;;6311868;22;20068;-87
2023/04/20 10:02:56;;;;;;;12.73;4.88;;;;;;;;;;6309901;22;20046;-87
2023/04/20 10:05:41;;;;;;;12.65;4.93;;;;;;;;;;6309930;22;20019;-87
2023/04/20 10:08:09;;;;;;;13.25;4.80;;;;;;;;;;6297066;22;20023;-87
2023/04/20 10:11:01;;;;;;;12.35;4.43;;;;;;;;;;6308307;22;20076;-87
2023/04/20 10:13:32;;;;;;;10.15;4.60;;;;;;;;;;6298577;22;20019;-87
2023/04/20 10:16:01;;;;;;;15.02;4.70;;;;;;;;;;6312114;22;20325;-87
2023/04/20 10:18:29;;;;;;;12.60;4.72;;;;;;;;;;6310737;22;20090;-87
2023/04/20 10:21:05;;;;;;;15.10;5.22;;;;;;;;;;6273695;22;20102;-87
2023/04/20 10:23:49;;;;;;;9.48;4.03;;;;;;;;;;6309795;22;20015;-87
2023/04/20 10:26:44;;;;;;;15.43;4.90;;;;;;;;;;6312101;22;20050;-87
2023/04/20 10:29:25;;;;;;;13.65;4.95;;;;;;;;;;6310538;22;20007;-87
2023/04/20 10:31:54;;;;;;;10.27;4.93;;;;;;;;;;6275977;22;20451;-86
2023/04/20 10:34:35;;;;;;;10.23;3.60;;;;;;;;;;6312504;22;20062;-87
2023/04/20 10:37:10;;;;;;;11.43;4.60;;;;;;;;;;6276219;22;20023;-87
2023/04/20 10:39:46;;;;;;;11.15;4.68;;;;;;;;;;6310528;22;20019;-87
2023/04/20 10:42:13;;;;;;;13.38;4.88;;;;;;;;;;6281268;22;20110;-86
2023/04/20 10:44:52;;;;;;;11.63;4.63;;;;;;;;;;6312791;22;20784;-87
2023/04/20 10:47:32;;;;;;;12.88;5.03;;;;;;;;;;6310928;22;20019;-86
2023/04/20 10:50:09;;;;;;;12.10;4.43;;;;;;;;;;6312684;22;20011;-86
2023/04/20 10:52:43;;;;;;;13.50;5.43;;;;;;;;;;6312795;22;20029;-87
2023/04/20 10:55:22;;;;;;;14.18;4.97;;;;;;;;;;6311787;22;20019;-87
2023/04/20 10:57:53;;;;;;;12.63;5.18;;;;;;;;;;6309441;22;20023;-87
2023/04/20 11:00:24;;;;;;;9.43;4.50;;;;;;;;;;6314169;22;20064;-86
2023/04/20 11:02:59;;;;;;;8.90;4.53;;;;;;;;;;6311953;22;20046;-87
2023/04/20 11:05:33;;;;;;;13.02;4.95;;;;;;;;;;6302040;22;20043;-87
2023/04/20 11:08:01;;;;;;;11.10;5.15;;;;;;;;;;6312062;22;20021;-87
2023/04/20 11:10:40;;;;;;;12.40;4.47;;;;;;;;;;6312943;22;20462;-87
2023/04/20 11:13:22;;;;;;;20.80;4.30;;;;;;;;;;6286864;22;20039;-86
2023/04/20 11:15:55;;;;;;;13.77;4.97;;;;;;;;;;6314231;22;20015;-87
2023/04/20 11:18:53;;;;;;;13.63;5.10;;;;;;;;;;6291840;22;20096;-87
2023/04/20 11:21:41;;;;;;;8.63;4.40;;;;;;;;;;6277475;22;20023;-86
2023/04/20 11:24:24;;;;;;;14.93;5.80;;;;;;;;;;6302404;22;20106;-86
2023/04/20 11:26:53;;;;;;;11.35;5.45;;;;;;;;;;6313854;22;20030;-87
2023/04/20 11:29:56;;;;;;;11.82;4.95;;;;;;;;;;6301624;22;20019;-87
2023/04/20 11:32:25;;;;;;;10.88;5.55;;;;;;;;;;6311514;22;20024;-86
2023/04/20 11:35:19;;;;;;;17.23;5.90;;;;;;;;;;6313207;22;20098;-88
2023/04/20 11:37:52;;;;;;;5.13;3.13;;;;;;;;;;6302536;22;20344;-88
2023/04/20 11:40:21;;;;;;;14.25;4.88;;;;;;;;;;6301715;22;20035;-88
2023/04/20 11:42:49;;;;;;;10.75;5.38;;;;;;;;;;6312692;22;20043;-88
2023/04/20 11:45:17;;;;;;;12.90;5.53;;;;;;;;;;6311323;22;20057;-87
2023/04/20 11:48:09;;;;;;;15.80;5.85;;;;;;;;;;6311401;22;20023;-88
2023/04/20 11:50:37;;;;;;;12.98;5.93;;;;;;;;;;6312643;22;20011;-88
2023/04/20 11:53:08;;;;;;;16.70;6.03;;;;;;;;;;6312995;22;20539;-87
2023/04/20 11:55:37;;;;;;;12.57;5.40;;;;;;;;;;6313320;22;20364;-87
2023/04/20 11:58:10;;;;;;;11.68;5.60;;;;;;;;;;6311152;22;20011;-87
2023/04/20 12:00:37;;;;;;;17.10;5.93;;;;;;;;;;6311357;22;20019;-87
2023/04/20 12:03:05;;;;;;;7.22;3.10;;;;;;;;;;6311744;22;20127;-88
2023/04/20 12:05:33;;;;;;;14.32;5.93;;;;;;;;;;6313804;22;20019;-88
2023/04/20 12:08:01;;;;;;;15.10;5.80;;;;;;;;;;6286265;22;20033;-87
2023/04/20 12:10:29;;;;;;;14.60;5.78;;;;;;;;;;6313497;22;20343;-88
2023/04/20 12:12:58;;;;;;;13.52;5.80;;;;;;;;;;6299716;22;20029;-88
2023/04/20 12:15:31;;;;;;;16.77;5.20;;;;;;;;;;6299704;22;20097;-88
2023/04/20 12:17:59;;;;;;;18.73;5.82;;;;;;;;;;6284202;22;20015;-88
2023/04/20 12:20:27;;;;;;;14.60;5.88;;;;;;;;;;6249555;22;20018;-88
2023/04/20 12:22:55;;;;;;;13.90;5.72;;;;;;;;;;6311377;22;20224;-87
2023/04/20 12:25:25;;;;;;;16.25;6.20;;;;;;;;;;6311047;22;20730;-88
2023/04/20 12:28:17;;;;;;;13.95;6.20;;;;;;;;;;6311276;22;20033;-89
2023/04/20 12:30:50;;;;;;;11.25;5.18;;;;;;;;;;6313686;22;20447;-89
2023/04/20 12:33:17;;;;;;;11.70;5.78;;;;;;;;;;6310041;22;20019;-91
2023/04/20 12:35:45;;;;;;;15.18;6.20;;;;;;;;;;6311265;22;20022;-90
2023/04/20 12:38:39;;;;;;;14.10;5.95;;;;;;;;;;6300589;22;20023;-90
2023/04/20 12:41:07;;;;;;;13.82;6.07;;;;;;;;;;6309712;22;20019;-90
2023/04/20 12:43:35;;;;;;;13.38;5.85;;;;;;;;;;6312620;22;20015;-91
2023/04/20 12:46:03;;;;;;;16.95;6.60;;;;;;;;;;6301012;22;20029;-91
2023/04/20 12:48:31;;;;;;;16.10;6.30;;;;;;;;;;6298516;22;20461;-91
2023/04/20 12:50:59;;;;;;;12.38;4.97;;;;;;;;;;6285761;22;20011;-90
2023/04/20 12:53:27;;;;;;;13.32;5.68;;;;;;;;;;6310640;22;20034;-91
2023/04/20 12:55:55;;;;;;;13.68;5.90;;;;;;;;;;6312374;22;20029;-90
2023/04/20 12:58:38;;;;;;;14.07;6.47;;;;;;;;;;6249553;22;20083;-91
2023/04/20 13:01:13;;;;;;;14.60;5.60;;;;;;;;;;6272685;22;20055;-91
2023/04/20 13:03:41;;;;;;;14.52;5.88;;;;;;;;;;6299728;22;20080;-91
2023/04/20 13:06:38;;;;;;;15.65;5.78;;;;;;;;;;6312098;22;20015;-91
2023/04/20 13:09:05;;;;;;;13.07;6.03;;;;;;;;;;6301112;22;20098;-90
2023/04/20 13:11:33;;;;;;;13.25;6.40;;;;;;;;;;6312538;22;20471;-91
2023/04/20 13:14:25;;;;;;;13.10;6.60;;;;;;;;;;6311426;22;20022;-90
2023/04/20 13:17:05;;;;;;;15.15;5.93;;;;;;;;;;6310441;22;20019;-91
2023/04/20 13:19:33;;;;;;;14.88;6.43;;;;;;;;;;6310784;22;20072;-91
2023/04/20 13:22:05;;;;;;;16.17;6.85;;;;;;;;;;6311582;22;20065;-90
2023/04/20 13:24:59;;;;;;;13.20;5.95;;;;;;;;;;6311702;22;20351;-90
2023/04/20 13:27:27;;;;;;;15.05;6.68;;;;;;;;;;6308850;22;20049;-91
2023/04/20 13:29:55;;;;;;;13.18;6.45;;;;;;;;;;6300230;22;20015;-91
2023/04/20 13:32:28;;;;;;;17.20;6.50;;;;;;;;;;6299232;22;20019;-90
2023/04/20 13:34:55;;;;;;;12.80;6.30;;;;;;;;;;6309760;22;20019;-90
2023/04/20 13:37:23;;;;;;;17.65;7.43;;;;;;;;;;6311896;22;20045;-91
2023/04/20 13:39:51;;;;;;;14.27;6.53;;;;;;;;;;6310411;22;20019;-90
2023/04/20 13:42:23;;;;;;;15.25;7.70;;;;;;;;;;6310875;22;20019;-91
2023/04/20 13:44:53;;;;;;;19.92;7.07;;;;;;;;;;6309131;22;20426;-89
2023/04/20 13:47:21;;;;;;;16.05;6.68;;;;;;;;;;6271620;22;20060;-89
2023/04/20 13:49:51;;;;;;;11.68;6.70;;;;;;;;;;6309333;22;20011;-90
2023/04/20 13:52:19;;;;;;;23.55;6.75;;;;;;;;;;6308401;22;20023;-91
2023/04/20 13:54:51;;;;;;;16.35;6.85;;;;;;;;;;6274444;22;20026;-91
2023/04/20 13:57:19;;;;;;;21.63;7.80;;;;;;;;;;6310195;22;20042;-90
2023/04/20 13:59:47;;;;;;;23.33;7.72;;;;;;;;;;6284091;22;20019;-90
2023/04/20 14:02:53;;;;;;;17.30;7.20;;;;;;;;;;6298378;22;20096;-91
2023/04/20 14:05:21;;;;;;;15.48;7.25;;;;;;;;;;6299621;22;20125;-91
2023/04/20 14:07:53;;;;;;;18.20;7.63;;;;;;;;;;6308991;22;20102;-90
2023/04/20 14:10:21;;;;;;;17.23;7.32;;;;;;;;;;6309289;22;20094;-89
2023/04/20 14:12:49;;;;;;;12.70;7.00;;;;;;;;;;6285221;22;20130;-90
2023/04/20 14:15:17;;;;;;;16.27;7.10;;;;;;;;;;6308319;22;20034;-91
2023/04/20 14:18:09;;;;;;;16.05;6.88;;;;;;;;;;6294941;22;20367;-90
2023/04/20 14:20:41;;;;;;;15.07;7.13;;;;;;;;;;6298308;22;20025;-91
2023/04/20 14:23:09;;;;;;;20.35;8.48;;;;;;;;;;6310119;22;20037;-91
2023/04/20 14:26:07;;;;;;;17.15;7.85;;;;;;;;;;6280058;22;20351;-91
2023/04/20 14:28:35;;;;;;;17.13;8.15;;;;;;;;;;6310385;22;20016;-91
2023/04/20 14:31:10;;;;;;;18.45;7.10;;;;;;;;;;6302555;22;20045;-91
2023/04/20 14:33:49;;;;;;;15.70;6.88;;;;;;;;;;6298521;22;20019;-91
2023/04/20 14:36:22;;;;;;;16.02;8.15;;;;;;;;;;6310149;22;20375;-91
2023/04/20 14:38:49;;;;;;;20.52;7.47;;;;;;;;;;6310478;22;20030;-91
2023/04/20 14:41:23;;;;;;;18.45;6.78;;;;;;;;;;6310727;22;20018;-91
2023/04/20 14:44:01;;;;;;;14.95;6.43;;;;;;;;;;6250047;22;20098;-91
2023/04/20 14:46:29;;;;;;;13.88;7.07;;;;;;;;;;6311217;22;20042;-91
2023/04/20 14:48:57;;;;;;;19.35;7.22;;;;;;;;;;6308890;22;20022;-91
2023/04/20 14:51:29;;;;;;;15.75;7.05;;;;;;;;;;6307814;22;20015;-91
2023/04/20 14:53:57;;;;;;;17.48;7.35;;;;;;;;;;6307983;22;20094;-91
2023/04/20 14:56:35;;;;;;;18.58;6.65;;;;;;;;;;6310972;22;20029;-91
2023/04/20 14:59:03;;;;;;;11.98;6.65;;;;;;;;;;6308724;22;20094;-92
2023/04/20 15:01:31;;;;;;;14.40;6.90;;;;;;;;;;6309169;22;20388;-91
2023/04/20 15:04:08;;;;;;;16.88;7.18;;;;;;;;;;6310207;22;20011;-91
2023/04/20 15:06:37;;;;;;;16.25;6.25;;;;;;;;;;6300566;22;20494;-91
2023/04/20 15:09:21;;;;;;;17.85;7.25;;;;;;;;;;6310875;22;20015;-90
2023/04/20 15:11:53;;;;;;;27.60;6.72;;;;;;;;;;6310695;22;20035;-90
2023/04/20 15:14:21;;;;;;;13.65;7.10;;;;;;;;;;6273920;22;20102;-90
2023/04/20 15:16:51;;;;;;;17.35;6.43;;;;;;;;;;6307566;22;20015;-90
2023/04/20 15:19:21;;;;;;;14.43;6.22;;;;;;;;;;6301161;22;20023;-90
2023/04/20 15:21:49;;;;;;;17.58;6.07;;;;;;;;;;6312559;22;20022;-90
2023/04/20 15:24:17;;;;;;;12.82;6.68;;;;;;;;;;6313205;22;20025;-90
2023/04/20 15:26:45;;;;;;;19.33;6.30;;;;;;;;;;6312473;22;20658;-90
2023/04/20 15:29:13;;;;;;;12.82;7.30;;;;;;;;;;6274209;22;20023;-90
2023/04/20 15:31:44;;;;;;;17.55;6.53;;;;;;;;;;6311616;22;20027;-90
2023/04/20 15:37:03;;;;;;;11.38;4.68;;;;;;;;;;6314404;22;20328;-90
2023/04/20 15:39:35;;;;;;;14.18;6.78;;;;;;;;;;6313459;22;20068;-90
2023/04/20 15:42:03;;;;;;;14.73;5.95;;;;;;;;;;6313773;22;20034;-91
2023/04/20 15:44:31;;;;;;;11.43;5.53;;;;;;;;;;6313291;22;20023;-90
2023/04/20 15:47:00;;;;;;;12.68;5.70;;;;;;;;;;6312674;22;20022;-91
2023/04/20 15:49:27;;;;;;;19.45;6.03;;;;;;;;;;6301964;22;20080;-91
2023/04/20 15:51:55;;;;;;;17.65;6.15;;;;;;;;;;6311981;22;20533;-91
2023/04/20 15:54:27;;;;;;;14.18;6.20;;;;;;;;;;6314502;22;20019;-89
2023/04/20 15:56:59;;;;;;;14.35;5.65;;;;;;;;;;6311455;22;20017;-90
2023/04/20 15:59:27;;;;;;;16.95;5.78;;;;;;;;;;6273262;22;20354;-90
2023/04/20 16:01:59;;;;;;;15.65;5.22;;;;;;;;;;6275383;22;20015;-90
2023/04/20 16:04:27;;;;;;;15.85;5.20;;;;;;;;;;6310859;22;20015;-90
2023/04/20 16:06:57;;;;;;;15.18;5.20;;;;;;;;;;6310617;22;20520;-90
2023/04/20 16:09:27;;;;;;;12.27;5.45;;;;;;;;;;6308669;22;20019;-90
2023/04/20 16:12:35;;;;;;;10.60;4.40;;;;;;;;;;6310960;22;20035;-90
2023/04/20 16:15:03;;;;;;;13.25;5.85;;;;;;;;;;6282289;22;20072;-90
2023/04/20 16:17:31;;;;;;;11.60;4.78;;;;;;;;;;6307865;22;20018;-90
2023/04/20 16:20:04;;;;;;;12.13;5.55;;;;;;;;;;6308263;22;20023;-89
2023/04/20 16:22:43;;;;;;;10.45;5.30;;;;;;;;;;6310832;22;20012;-91
2023/04/20 16:25:21;;;;;;;12.10;5.05;;;;;;;;;;6312026;22;20347;-91
2023/04/20 16:27:50;;;;;;;18.30;5.75;;;;;;;;;;6312629;22;20715;-90
2023/04/20 16:30:17;;;;;;;15.98;5.70;;;;;;;;;;6315035;22;20019;-90
2023/04/20 16:32:49;;;;;;;12.38;5.18;;;;;;;;;;6299333;22;20030;-91
2023/04/20 16:35:17;;;;;;;12.88;5.63;;;;;;;;;;6314239;22;20026;-90
2023/04/20 16:37:45;;;;;;;16.98;5.82;;;;;;;;;;6314552;22;20019;-91
2023/04/20 16:41:01;;;;;;;20.20;5.70;;;;;;;;;;6302709;22;20006;-91
2023/04/20 16:43:34;;;;;;;16.40;5.63;;;;;;;;;;6312545;22;20102;-90
2023/04/20 16:46:40;;;;;;;13.52;5.03;;;;;;;;;;6312113;22;20427;-91
2023/04/20 16:49:09;;;;;;;16.25;6.03;;;;;;;;;;6310539;22;20467;-90
2023/04/20 16:51:37;;;;;;;21.40;6.32;;;;;;;;;;6302601;22;20042;-90
2023/04/20 16:54:05;;;;;;;20.85;5.93;;;;;;;;;;6312713;22;20015;-90
2023/04/20 16:56:33;;;;;;;16.42;5.80;;;;;;;;;;6312194;22;20015;-89
2023/04/20 16:59:01;;;;;;;12.65;5.40;;;;;;;;;;6310977;22;20359;-89
2023/04/20 17:01:29;;;;;;;14.40;5.35;;;;;;;;;;6302619;22;20019;-87
2023/04/20 17:03:58;;;;;;;17.42;6.20;;;;;;;;;;6279054;22;20015;-87
2023/04/20 17:06:51;;;;;;;14.35;5.22;;;;;;;;;;6313558;22;20015;-87
2023/04/20 17:09:19;;;;;;;16.55;6.20;;;;;;;;;;6311174;22;20042;-87
2023/04/20 17:11:47;;;;;;;13.50;5.93;;;;;;;;;;6313529;22;20011;-87
2023/04/20 17:14:15;;;;;;;14.80;5.55;;;;;;;;;;6310951;22;20039;-87
2023/04/20 17:16:43;;;;;;;23.15;5.93;;;;;;;;;;6300584;22;20355;-88
2023/04/20 17:19:16;;;;;;;14.38;5.35;;;;;;;;;;6275230;22;20015;-88
2023/04/20 17:21:44;;;;;;;10.18;5.10;;;;;;;;;;6299968;22;20015;-87
2023/04/20 17:24:40;;;;;;;11.77;5.25;;;;;;;;;;6302257;22;20395;-87
2023/04/20 17:27:37;;;;;;;20.33;5.90;;;;;;;;;;6312843;22;20003;-87
2023/04/20 17:30:09;;;;;;;15.45;5.88;;;;;;;;;;6287282;22;20023;-88
2023/04/20 17:32:37;;;;;;;16.23;5.95;;;;;;;;;;6317458;22;20046;-87
2023/04/20 17:35:29;;;;;;;12.73;5.55;;;;;;;;;;6312210;22;20105;-88
2023/04/20 17:37:58;;;;;;;11.35;5.35;;;;;;;;;;6312651;22;20011;-87
2023/04/20 17:40:27;;;;;;;14.20;5.45;;;;;;;;;;6311345;22;20019;-87
2023/04/20 17:42:59;;;;;;;15.15;5.57;;;;;;;;;;6311604;22;20029;-87
2023/04/20 17:45:33;;;;;;;15.40;5.45;;;;;;;;;;6311733;22;20015;-87
2023/04/20 17:48:01;;;;;;;10.52;4.57;;;;;;;;;;6310960;22;20011;-87
2023/04/20 17:50:59;;;;;;;14.23;5.20;;;;;;;;;;6309979;22;20381;-87
2023/04/20 17:53:27;;;;;;;10.13;5.18;;;;;;;;;;6310491;22;20015;-87
2023/04/20 17:55:55;;;;;;;13.20;5.03;;;;;;;;;;6311992;22;20041;-87
2023/04/20 17:58:23;;;;;;;15.32;5.57;;;;;;;;;;6310544;22;20023;-89
2023/04/20 18:00:57;;;;;;;16.48;5.35;;;;;;;;;;6310483;22;20017;-89
2023/04/20 18:03:25;;;;;;;15.75;5.13;;;;;;;;;;6309439;22;20046;-87
2023/04/20 18:05:53;;;;;;;15.52;5.55;;;;;;;;;;6313946;22;20019;-88
2023/04/20 18:08:22;;;;;;;15.85;5.35;;;;;;;;;;6279758;22;20029;-87
2023/04/20 18:10:49;;;;;;;12.07;5.20;;;;;;;;;;6316271;22;20327;-88
2023/04/20 18:13:41;;;;;;;13.73;5.47;;;;;;;;;;6317260;22;20019;-87
2023/04/20 18:16:13;;;;;;;15.65;5.88;;;;;;;;;;6317051;22;20054;-87
2023/04/20 18:18:41;;;;;;;18.00;6.90;;;;;;;;;;6316349;22;20045;-87
2023/04/20 18:21:10;;;;;;;16.00;6.20;;;;;;;;;;6316324;22;20102;-86
2023/04/20 18:23:43;;;;;;;12.32;6.30;;;;;;;;;;6314144;22;20019;-87
2023/04/20 18:26:16;;;;;;;13.43;5.63;;;;;;;;;;6315129;22;20095;-87
2023/04/20 18:28:43;;;;;;;13.77;6.20;;;;;;;;;;6312382;22;20103;-87
2023/04/20 18:31:11;;;;;;;12.57;5.53;;;;;;;;;;6311456;22;20011;-86
2023/04/20 18:33:39;;;;;;;13.73;5.43;;;;;;;;;;6312708;22;20015;-86
2023/04/20 18:36:31;;;;;;;13.48;5.60;;;;;;;;;;6312012;22;20096;-86
2023/04/20 18:39:08;;;;;;;15.65;5.57;;;;;;;;;;6288085;22;20015;-87
2023/04/20 18:41:36;;;;;;;15.23;6.15;;;;;;;;;;6313706;22;20098;-86
2023/04/20 18:44:03;;;;;;;16.55;5.55;;;;;;;;;;6274406;22;20049;-86
2023/04/20 18:46:31;;;;;;;16.83;5.88;;;;;;;;;;6313009;22;20019;-86
2023/04/20 18:48:59;;;;;;;19.85;6.53;;;;;;;;;;6313056;22;20023;-86
2023/04/20 18:51:27;;;;;;;14.57;5.85;;;;;;;;;;6314201;22;20011;-86
2023/04/20 18:53:55;;;;;;;12.77;5.93;;;;;;;;;;6314006;22;20045;-86
2023/04/20 18:56:23;;;;;;;12.73;6.15;;;;;;;;;;6314289;22;20417;-85
2023/04/20 18:58:51;;;;;;;14.65;5.68;;;;;;;;;;6316721;22;20015;-86
2023/04/20 19:01:19;;;;;;;16.95;5.95;;;;;;;;;;6312896;22;20046;-85
2023/04/20 19:03:47;;;;;;;12.15;5.45;;;;;;;;;;6314136;22;20451;-85
2023/04/20 19:06:15;;;;;;;16.05;6.35;;;;;;;;;;6314831;22;20015;-85
2023/04/20 19:08:43;;;;;;;17.92;6.88;;;;;;;;;;6314036;22;20019;-87
2023/04/20 19:11:35;;;;;;;21.10;6.55;;;;;;;;;;6314898;22;20065;-86
2023/04/20 19:14:03;;;;;;;14.00;6.38;;;;;;;;;;6315472;22;20019;-85
2023/04/20 19:16:32;;;;;;;15.18;6.40;;;;;;;;;;6316332;22;20090;-85
2023/04/20 19:19:02;;;;;;;22.85;6.53;;;;;;;;;;6314203;22;20045;-86
2023/04/20 19:21:31;;;;;;;14.27;6.10;;;;;;;;;;6313356;22;20026;-86
2023/04/20 19:23:59;;;;;;;15.15;5.53;;;;;;;;;;6312900;22;20046;-85
2023/04/20 19:32:15;;;;;;;11.30;5.13;;;;;;;;;;6311760;22;20034;-85
2023/04/20 19:34:43;;;;;;;21.58;6.70;;;;;;;;;;6315316;22;20022;-85
2023/04/20 19:37:15;;;;;;;14.48;5.57;;;;;;;;;;6313286;22;20026;-85
2023/04/20 19:39:47;;;;;;;14.82;6.07;;;;;;;;;;6314656;22;20015;-85
2023/04/20 19:42:21;;;;;;;15.07;6.38;;;;;;;;;;6314034;22;20015;-85
2023/04/20 19:44:49;;;;;;;15.48;6.50;;;;;;;;;;6311119;22;20026;-87
2023/04/20 19:47:17;;;;;;;13.00;5.65;;;;;;;;;;6309052;22;20074;-87
2023/04/20 19:49:53;;;;;;;11.68;5.78;;;;;;;;;;6311629;22;20024;-87
2023/04/20 19:52:26;;;;;;;13.30;5.93;;;;;;;;;;6312535;22;20035;-87
2023/04/20 19:54:53;;;;;;;15.00;5.50;;;;;;;;;;6315884;22;20113;-87
2023/04/20 19:57:25;;;;;;;14.07;6.13;;;;;;;;;;6279745;22;20027;-87
2023/04/20 19:59:58;;;;;;;16.08;6.63;;;;;;;;;;6312687;22;20015;-89
2023/04/20 20:02:29;;;;;;;16.15;6.40;;;;;;;;;;6309837;22;20046;-89
2023/04/20 20:04:57;;;;;;;18.60;5.90;;;;;;;;;;6311074;22;20073;-89
2023/04/20 20:07:30;;;;;;;13.57;6.20;;;;;;;;;;6310541;22;20015;-89
2023/04/20 20:09:57;;;;;;;12.48;6.47;;;;;;;;;;6309998;22;20019;-89
2023/04/20 20:12:49;;;;;;;15.10;6.07;;;;;;;;;;6310060;22;20148;-89
2023/04/20 20:15:21;;;;;;;17.90;6.72;;;;;;;;;;6311311;22;20049;-89
2023/04/20 20:17:49;;;;;;;17.52;7.65;;;;;;;;;;6308264;22;20019;-90
2023/04/20 20:20:17;;;;;;;18.90;6.78;;;;;;;;;;6310735;22;20105;-89
2023/04/20 20:22:51;;;;;;;18.42;6.50;;;;;;;;;;6310795;22;20007;-89
2023/04/20 20:25:19;;;;;;;17.92;6.35;;;;;;;;;;6308825;22;20793;-90
2023/04/20 20:28:11;;;;;;;15.63;6.80;;;;;;;;;;6311072;22;20015;-89
2023/04/20 20:30:43;;;;;;;17.25;6.63;;;;;;;;;;6311308;22;20104;-89
2023/04/20 20:33:11;;;;;;;21.65;7.30;;;;;;;;;;6310157;22;20038;-88
2023/04/20 20:36:05;;;;;;;16.00;6.88;;;;;;;;;;6309052;22;20121;-89
2023/04/20 20:38:39;;;;;;;14.68;7.10;;;;;;;;;;6309022;22;20022;-89
2023/04/20 20:41:08;;;;;;;19.58;7.35;;;;;;;;;;6309403;22;20094;-89
2023/04/20 20:43:35;;;;;;;13.02;7.03;;;;;;;;;;6309266;22;20333;-89
2023/04/20 20:46:27;;;;;;;13.07;6.60;;;;;;;;;;6309518;22;20010;-88
2023/04/20 20:48:55;;;;;;;15.55;6.65;;;;;;;;;;6310240;22;20351;-88
2023/04/20 20:51:27;;;;;;;18.17;6.57;;;;;;;;;;6308671;22;20019;-89
2023/04/20 20:53:59;;;;;;;18.85;7.43;;;;;;;;;;6312184;22;20019;-88
2023/04/20 20:56:27;;;;;;;18.42;6.60;;;;;;;;;;6298563;22;20342;-89
2023/04/20 20:59:19;;;;;;;18.08;6.53;;;;;;;;;;6299783;22;20007;-89
2023/04/20 21:01:51;;;;;;;14.43;5.97;;;;;;;;;;6310377;22;20385;-86
2023/04/20 21:04:19;;;;;;;13.32;6.40;;;;;;;;;;6247643;22;20025;-87
2023/04/20 21:06:47;;;;;;;12.23;5.93;;;;;;;;;;6311724;22;20015;-87
2023/04/20 21:09:20;;;;;;;15.52;6.35;;;;;;;;;;6309411;22;20440;-87
2023/04/20 21:11:47;;;;;;;13.88;6.25;;;;;;;;;;6312066;22;20026;-86
2023/04/20 21:14:15;;;;;;;14.93;7.40;;;;;;;;;;6309695;22;20030;-86
2023/04/20 21:16:47;;;;;;;14.13;7.10;;;;;;;;;;6298877;22;20355;-87
2023/04/20 21:19:15;;;;;;;17.60;7.72;;;;;;;;;;6310100;22;20015;-86
2023/04/20 21:22:07;;;;;;;16.38;7.00;;;;;;;;;;6310907;22;20343;-87
2023/04/20 21:24:35;;;;;;;13.45;7.40;;;;;;;;;;6311232;22;20046;-86
2023/04/20 21:27:07;;;;;;;15.32;7.85;;;;;;;;;;6311681;22;20090;-86
2023/04/20 21:29:35;;;;;;;16.98;7.93;;;;;;;;;;6308790;22;20525;-86
2023/04/20 21:32:03;;;;;;;18.55;8.07;;;;;;;;;;6309436;22;20017;-86
2023/04/20 21:34:31;;;;;;;17.25;8.38;;;;;;;;;;6310950;22;20019;-86
2023/04/20 21:37:05;;;;;;;20.40;8.30;;;;;;;;;;6310768;22;20019;-86
2023/04/20 21:39:33;;;;;;;20.15;8.75;;;;;;;;;;6312829;22;20018;-87
2023/04/20 21:42:10;;;;;;;23.48;8.05;;;;;;;;;;6299553;22;20019;-87
2023/04/20 21:44:37;;;;;;;24.08;8.50;;;;;;;;;;6310624;22;20019;-86
2023/04/20 21:47:05;;;;;;;24.83;8.00;;;;;;;;;;6310852;22;20021;-86
2023/04/20 21:49:37;;;;;;;19.15;9.23;;;;;;;;;;6311664;22;20084;-86